createdAt,value
2017-07-20T00:00:58.723Z,1005.77
2017-07-20T00:02:11.309Z,1005.77
2017-07-20T00:03:23.963Z,1005.78
2017-07-20T00:04:36.548Z,1005.73
2017-07-20T00:05:48.883Z,1005.72
2017-07-20T00:07:01.196Z,1005.7
2017-07-20T00:08:13.187Z,1005.64
2017-07-20T00:09:25.785Z,1005.68
2017-07-20T00:10:38.610Z,1005.68
2017-07-20T00:11:51.188Z,1005.7
2017-07-20T00:13:03.232Z,1005.65
2017-07-20T00:14:15.270Z,1005.62
2017-07-20T00:15:27.864Z,1005.6
2017-07-20T00:16:40.183Z,1005.61
2017-07-20T00:17:52.781Z,1005.61
2017-07-20T00:19:05.354Z,1005.56
2017-07-20T00:20:17.991Z,1005.55
2017-07-20T00:21:30.580Z,1005.49
2017-07-20T00:22:43.201Z,1005.36
2017-07-20T00:23:55.860Z,1005.25
2017-07-20T00:25:08.465Z,1005.23
2017-07-20T00:26:21.065Z,1005.23
2017-07-20T00:27:33.671Z,1005.18
2017-07-20T00:28:46.269Z,1005.13
2017-07-20T00:29:58.906Z,1005.06
2017-07-20T00:31:11.250Z,1004.99
2017-07-20T00:32:23.574Z,1004.96
2017-07-20T00:33:36.129Z,1004.92
2017-07-20T00:34:48.407Z,1004.8
2017-07-20T00:36:01.019Z,1004.79
2017-07-20T00:37:13.001Z,1004.61
2017-07-20T00:38:25.662Z,1004.53
2017-07-20T00:39:37.607Z,1004.49
2017-07-20T00:40:49.933Z,1004.45
2017-07-20T00:42:02.546Z,1004.41
2017-07-20T00:43:14.871Z,1004.35
2017-07-20T00:44:27.172Z,1004.3
2017-07-20T00:45:39.824Z,1004.26
2017-07-20T00:46:52.450Z,1004.19
2017-07-20T00:48:04.754Z,1004.03
2017-07-20T00:49:16.802Z,1004.1
2017-07-20T00:50:29.134Z,1004.29
2017-07-20T00:51:41.776Z,1004.46
2017-07-20T00:52:54.448Z,1004.57
2017-07-20T00:54:06.743Z,1004.66
2017-07-20T00:55:19.347Z,1004.75
2017-07-20T00:56:31.681Z,1004.85
2017-07-20T00:57:43.669Z,1004.9
2017-07-20T00:58:56.240Z,1004.98
2017-07-20T01:00:08.899Z,1005.04
2017-07-20T01:01:21.260Z,1005.11
2017-07-20T01:02:33.840Z,1005.11
2017-07-20T01:03:46.473Z,1005.18
2017-07-20T01:04:59.092Z,1005.23
2017-07-20T01:06:11.752Z,1005.27
2017-07-20T01:07:24.070Z,1005.3
2017-07-20T01:08:36.709Z,1005.39
2017-07-20T01:09:48.969Z,1005.43
2017-07-20T01:11:01.302Z,1005.53
2017-07-20T01:12:13.606Z,1005.51
2017-07-20T01:13:26.217Z,1005.47
2017-07-20T01:14:38.822Z,1005.4
2017-07-20T01:15:50.851Z,1005.37
2017-07-20T01:17:03.461Z,1005.28
2017-07-20T01:18:15.752Z,1005.2
2017-07-20T01:19:28.379Z,1005.16
2017-07-20T01:20:40.666Z,1005.14
2017-07-20T01:21:53.236Z,1005.19
2017-07-20T01:23:05.571Z,1005.18
2017-07-20T01:24:17.881Z,1005.21
2017-07-20T01:25:30.501Z,1005.21
2017-07-20T01:26:43.077Z,1005.17
2017-07-20T01:27:55.650Z,1005.14
2017-07-20T01:29:08.246Z,1005.09
2017-07-20T01:30:20.817Z,1004.93
2017-07-20T01:31:33.094Z,1004.89
2017-07-20T01:32:45.705Z,1004.92
2017-07-20T01:33:58.326Z,1004.99
2017-07-20T01:35:10.004Z,1005.04
2017-07-20T01:36:22.640Z,1005.02
2017-07-20T01:37:35.501Z,1005.03
2017-07-20T01:38:48.168Z,1005.09
2017-07-20T01:40:00.766Z,1005.1
2017-07-20T01:41:12.453Z,1005.15
2017-07-20T01:42:25.073Z,1005.22
2017-07-20T01:43:37.683Z,1005.19
2017-07-20T01:44:50.348Z,1005.13
2017-07-20T01:46:02.988Z,1005.14
2017-07-20T01:47:15.351Z,1005.18
2017-07-20T01:48:27.683Z,1005.22
2017-07-20T01:49:40.308Z,1005.36
2017-07-20T01:50:52.890Z,1005.45
2017-07-20T01:52:05.195Z,1005.45
2017-07-20T01:53:17.839Z,1005.48
2017-07-20T01:54:30.176Z,1005.45
2017-07-20T01:55:42.749Z,1005.52
2017-07-20T01:56:55.355Z,1005.47
2017-07-20T01:58:07.951Z,1005.41
2017-07-20T01:59:20.916Z,1005.39
2017-07-20T02:00:32.925Z,1005.44
2017-07-20T02:01:45.593Z,1005.45
2017-07-20T02:02:58.251Z,1005.52
2017-07-20T02:04:10.827Z,1005.51
2017-07-20T02:05:23.450Z,1005.53
2017-07-20T02:06:36.014Z,1005.55
2017-07-20T02:07:48.632Z,1005.56
2017-07-20T02:09:01.256Z,1005.53
2017-07-20T02:10:13.904Z,1005.51
2017-07-20T02:11:26.169Z,1005.44
2017-07-20T02:12:38.741Z,1005.4
2017-07-20T02:13:51.118Z,1005.43
2017-07-20T02:15:03.737Z,1005.36
2017-07-20T02:16:16.392Z,1005.38
2017-07-20T02:17:29.128Z,1005.37
2017-07-20T02:18:41.721Z,1005.33
2017-07-20T02:19:53.972Z,1005.21
2017-07-20T02:21:06.561Z,1005.08
2017-07-20T02:22:18.552Z,1005.03
2017-07-20T02:23:31.193Z,1005
2017-07-20T02:24:43.502Z,1004.94
2017-07-20T02:25:55.779Z,1004.96
2017-07-20T02:27:08.401Z,1004.95
2017-07-20T02:28:21.056Z,1004.94
2017-07-20T02:29:33.674Z,1004.89
2017-07-20T02:30:46.298Z,1004.82
2017-07-20T02:31:59.254Z,1004.83
2017-07-20T02:33:11.267Z,1004.84
2017-07-20T02:34:23.870Z,1004.85
2017-07-20T02:35:36.200Z,1004.86
2017-07-20T02:36:48.896Z,1004.84
2017-07-20T02:38:01.547Z,1004.88
2017-07-20T02:39:13.832Z,1004.85
2017-07-20T02:40:26.445Z,1004.86
2017-07-20T02:41:38.459Z,1004.86
2017-07-20T02:42:51.066Z,1004.88
2017-07-20T02:44:03.651Z,1004.89
2017-07-20T02:45:15.918Z,1004.85
2017-07-20T02:46:28.454Z,1004.87
2017-07-20T02:47:40.696Z,1004.84
2017-07-20T02:48:53.049Z,1004.82
2017-07-20T02:50:05.382Z,1004.86
2017-07-20T02:51:18.037Z,1004.85
2017-07-20T02:52:30.699Z,1004.85
2017-07-20T02:53:43.315Z,1004.82
2017-07-20T02:54:55.939Z,1004.87
2017-07-20T02:56:08.260Z,1004.91
2017-07-20T02:57:20.880Z,1004.95
2017-07-20T02:58:33.180Z,1005
2017-07-20T02:59:45.760Z,1004.96
2017-07-20T03:00:58.334Z,1004.95
2017-07-20T03:02:10.391Z,1004.92
2017-07-20T03:03:22.674Z,1004.93
2017-07-20T03:04:35.246Z,1004.9
2017-07-20T03:05:47.885Z,1004.9
2017-07-20T03:07:00.157Z,1004.93
2017-07-20T03:08:12.780Z,1004.97
2017-07-20T03:09:25.054Z,1004.95
2017-07-20T03:10:37.694Z,1004.96
2017-07-20T03:11:50.369Z,1004.99
2017-07-20T03:13:02.931Z,1004.95
2017-07-20T03:14:15.284Z,1004.92
2017-07-20T03:15:27.809Z,1004.91
2017-07-20T03:16:40.101Z,1004.81
2017-07-20T03:17:52.447Z,1004.85
2017-07-20T03:19:04.474Z,1004.86
2017-07-20T03:20:17.103Z,1004.88
2017-07-20T03:21:29.702Z,1004.92
2017-07-20T03:22:42.303Z,1004.92
2017-07-20T03:23:54.573Z,1004.91
2017-07-20T03:25:06.689Z,1004.88
2017-07-20T03:26:19.329Z,1004.89
2017-07-20T03:27:31.914Z,1004.93
2017-07-20T03:28:44.521Z,1004.96
2017-07-20T03:29:56.910Z,1005.05
2017-07-20T03:31:09.607Z,1005.04
2017-07-20T03:32:22.226Z,1005.12
2017-07-20T03:33:34.904Z,1005.1
2017-07-20T03:34:47.462Z,1005.1
2017-07-20T03:36:00.083Z,1005.05
2017-07-20T03:37:12.579Z,1005.04
2017-07-20T03:38:25.193Z,1005.07
2017-07-20T03:39:37.830Z,1005.04
2017-07-20T03:40:50.378Z,1005.09
2017-07-20T03:42:03.023Z,1005.05
2017-07-20T03:43:15.328Z,1005.01
2017-07-20T03:44:27.907Z,1004.97
2017-07-20T03:45:40.532Z,1005.01
2017-07-20T03:46:53.153Z,1004.95
2017-07-20T03:48:05.737Z,1004.93
2017-07-20T03:49:17.769Z,1004.97
2017-07-20T03:50:30.349Z,1004.96
2017-07-20T03:51:42.920Z,1004.98
2017-07-20T03:52:55.568Z,1004.92
2017-07-20T03:54:08.199Z,1004.88
2017-07-20T03:55:20.504Z,1004.93
2017-07-20T03:56:33.141Z,1004.9
2017-07-20T03:57:45.736Z,1004.89
2017-07-20T03:58:58.091Z,1004.92
2017-07-20T04:00:10.678Z,1004.96
2017-07-20T04:01:23.023Z,1004.96
2017-07-20T04:02:35.018Z,1005.05
2017-07-20T04:03:47.556Z,1005
2017-07-20T04:05:00.190Z,1005.02
2017-07-20T04:06:12.223Z,1005
2017-07-20T04:07:24.827Z,1004.97
2017-07-20T04:08:37.505Z,1005
2017-07-20T04:09:49.863Z,1004.99
2017-07-20T04:11:02.267Z,1005.02
2017-07-20T04:12:14.855Z,1005.03
2017-07-20T04:13:27.505Z,1005.05
2017-07-20T04:14:40.154Z,1005.04
2017-07-20T04:15:52.761Z,1005.04
2017-07-20T04:17:05.398Z,1005.02
2017-07-20T04:18:18.071Z,1005.01
2017-07-20T04:19:30.688Z,1005.02
2017-07-20T04:20:43.522Z,1004.98
2017-07-20T04:21:56.167Z,1004.94
2017-07-20T04:23:08.858Z,1004.84
2017-07-20T04:24:21.427Z,1004.81
2017-07-20T04:25:33.766Z,1004.86
2017-07-20T04:26:46.371Z,1004.86
2017-07-20T04:27:58.993Z,1004.98
2017-07-20T04:29:11.285Z,1004.97
2017-07-20T04:30:23.825Z,1004.91
2017-07-20T04:31:36.394Z,1004.84
2017-07-20T04:32:49.017Z,1004.83
2017-07-20T04:34:01.301Z,1004.86
2017-07-20T04:35:13.902Z,1004.85
2017-07-20T04:36:26.243Z,1004.82
2017-07-20T04:37:38.557Z,1004.8
2017-07-20T04:38:51.184Z,1004.74
2017-07-20T04:40:03.817Z,1004.76
2017-07-20T04:41:16.146Z,1004.73
2017-07-20T04:42:29.002Z,1004.72
2017-07-20T04:43:41.586Z,1004.65
2017-07-20T04:44:54.125Z,1004.6
2017-07-20T04:46:06.783Z,1004.54
2017-07-20T04:47:19.386Z,1004.5
2017-07-20T04:48:32.005Z,1004.51
2017-07-20T04:49:44.338Z,1004.46
2017-07-20T04:50:56.936Z,1004.49
2017-07-20T04:52:09.573Z,1004.48
2017-07-20T04:53:21.815Z,1004.47
2017-07-20T04:54:34.122Z,1004.47
2017-07-20T04:55:46.815Z,1004.44
2017-07-20T04:56:59.436Z,1004.44
2017-07-20T04:58:12.031Z,1004.44
2017-07-20T04:59:24.340Z,1004.42
2017-07-20T05:00:36.961Z,1004.42
2017-07-20T05:01:49.379Z,1004.41
2017-07-20T05:03:01.417Z,1004.4
2017-07-20T05:04:14.011Z,1004.44
2017-07-20T05:05:26.291Z,1004.41
2017-07-20T05:06:38.629Z,1004.47
2017-07-20T05:07:51.222Z,1004.44
2017-07-20T05:09:03.506Z,1004.44
2017-07-20T05:10:16.372Z,1004.42
2017-07-20T05:11:28.992Z,1004.4
2017-07-20T05:12:41.568Z,1004.37
2017-07-20T05:13:54.126Z,1004.44
2017-07-20T05:15:06.715Z,1004.4
2017-07-20T05:16:19.271Z,1004.41
2017-07-20T05:17:31.582Z,1004.42
2017-07-20T05:18:44.184Z,1004.37
2017-07-20T05:19:56.785Z,1004.41
2017-07-20T05:21:09.627Z,1004.42
2017-07-20T05:22:21.901Z,1004.44
2017-07-20T05:23:34.518Z,1004.4
2017-07-20T05:24:46.529Z,1004.39
2017-07-20T05:25:58.785Z,1004.38
2017-07-20T05:27:10.760Z,1004.3
2017-07-20T05:28:22.765Z,1004.35
2017-07-20T05:29:35.374Z,1004.37
2017-07-20T05:30:47.982Z,1004.37
2017-07-20T05:32:00.589Z,1004.41
2017-07-20T05:33:12.963Z,1004.37
2017-07-20T05:34:25.532Z,1004.38
2017-07-20T05:35:37.516Z,1004.38
2017-07-20T05:36:50.150Z,1004.4
2017-07-20T05:38:02.529Z,1004.38
2017-07-20T05:39:15.234Z,1004.33
2017-07-20T05:40:27.565Z,1004.32
2017-07-20T05:41:40.132Z,1004.3
2017-07-20T05:42:52.415Z,1004.31
2017-07-20T05:44:04.779Z,1004.38
2017-07-20T05:45:17.373Z,1004.4
2017-07-20T05:46:29.982Z,1004.35
2017-07-20T05:47:42.585Z,1004.3
2017-07-20T05:48:54.882Z,1004.3
2017-07-20T05:50:07.511Z,1004.29
2017-07-20T05:51:20.076Z,1004.32
2017-07-20T05:52:32.690Z,1004.29
2017-07-20T05:53:45.299Z,1004.27
2017-07-20T05:54:57.968Z,1004.28
2017-07-20T05:56:09.967Z,1004.27
2017-07-20T05:57:22.585Z,1004.3
2017-07-20T05:58:35.456Z,1004.27
2017-07-20T05:59:47.832Z,1004.34
2017-07-20T06:01:00.143Z,1004.29
2017-07-20T06:02:12.750Z,1004.28
2017-07-20T06:03:25.358Z,1004.3
2017-07-20T06:04:37.956Z,1004.31
2017-07-20T06:05:50.570Z,1004.36
2017-07-20T06:07:02.882Z,1004.37
2017-07-20T06:08:15.559Z,1004.37
2017-07-20T06:09:28.242Z,1004.42
2017-07-20T06:10:40.876Z,1004.42
2017-07-20T06:11:53.208Z,1004.43
2017-07-20T06:13:05.839Z,1004.45
2017-07-20T06:14:18.405Z,1004.41
2017-07-20T06:15:30.683Z,1004.43
2017-07-20T06:16:42.996Z,1004.45
2017-07-20T06:17:55.596Z,1004.45
2017-07-20T06:19:07.899Z,1004.41
2017-07-20T06:20:20.782Z,1004.38
2017-07-20T06:21:33.117Z,1004.36
2017-07-20T06:22:45.694Z,1004.34
2017-07-20T06:23:57.718Z,1004.33
2017-07-20T06:25:09.412Z,1004.31
2017-07-20T06:26:21.386Z,1004.26
2017-07-20T06:27:33.684Z,1004.31
2017-07-20T06:28:45.977Z,1004.39
2017-07-20T06:29:58.622Z,1004.41
2017-07-20T06:31:11.166Z,1004.31
2017-07-20T06:32:23.473Z,1004.38
2017-07-20T06:33:36.121Z,1004.54
2017-07-20T06:34:48.788Z,1004.55
2017-07-20T06:36:01.385Z,1004.41
2017-07-20T06:37:13.969Z,1004.58
2017-07-20T06:38:26.563Z,1004.64
2017-07-20T06:39:39.222Z,1004.5
2017-07-20T06:40:51.801Z,1004.32
2017-07-20T06:42:04.438Z,1004.4
2017-07-20T06:43:17.140Z,1004.65
2017-07-20T06:44:29.765Z,1004.58
2017-07-20T06:45:42.045Z,1004.53
2017-07-20T06:46:54.662Z,1004.67
2017-07-20T06:48:06.975Z,1004.73
2017-07-20T06:49:19.597Z,1004.73
2017-07-20T06:50:32.169Z,1004.75
2017-07-20T06:51:44.795Z,1004.6
2017-07-20T06:52:57.399Z,1004.48
2017-07-20T06:54:09.749Z,1004.34
2017-07-20T06:55:22.387Z,1004.12
2017-07-20T06:56:34.730Z,1004.22
2017-07-20T06:57:46.452Z,1004.21
2017-07-20T06:58:59.095Z,1004.18
2017-07-20T07:00:11.710Z,1004.16
2017-07-20T07:01:24.365Z,1004.2
2017-07-20T07:02:36.640Z,1004.3
2017-07-20T07:03:49.243Z,1004.3
2017-07-20T07:05:01.869Z,1004.36
2017-07-20T07:06:13.852Z,1004.28
2017-07-20T07:07:26.153Z,1004.3
2017-07-20T07:08:38.808Z,1004.35
2017-07-20T07:09:51.450Z,1004.43
2017-07-20T07:11:03.456Z,1004.41
2017-07-20T07:12:16.101Z,1004.38
2017-07-20T07:13:28.404Z,1004.32
2017-07-20T07:14:40.984Z,1004.4
2017-07-20T07:15:53.593Z,1004.4
2017-07-20T07:17:05.923Z,1004.39
2017-07-20T07:18:18.547Z,1004.35
2017-07-20T07:19:30.897Z,1004.3
2017-07-20T07:20:42.877Z,1004.27
2017-07-20T07:21:55.502Z,1004.31
2017-07-20T07:23:08.159Z,1004.21
2017-07-20T07:24:20.789Z,1004.19
2017-07-20T07:25:33.074Z,1004.13
2017-07-20T07:26:45.106Z,1004.16
2017-07-20T07:27:57.085Z,1004.15
2017-07-20T07:29:09.692Z,1004.17
2017-07-20T07:30:22.316Z,1004.17
2017-07-20T07:31:34.887Z,1004.23
2017-07-20T07:32:46.873Z,1004.22
2017-07-20T07:33:59.480Z,1004.25
2017-07-20T07:35:12.148Z,1004.22
2017-07-20T07:36:24.746Z,1004.27
2017-07-20T07:37:36.693Z,1004.32
2017-07-20T07:38:49.315Z,1004.28
2017-07-20T07:40:01.665Z,1004.33
2017-07-20T07:41:14.264Z,1004.33
2017-07-20T07:42:26.579Z,1004.38
2017-07-20T07:43:39.188Z,1004.31
2017-07-20T07:44:51.824Z,1004.27
2017-07-20T07:46:03.917Z,1004.28
2017-07-20T07:47:16.581Z,1004.32
2017-07-20T07:48:29.279Z,1004.37
2017-07-20T07:49:41.947Z,1004.37
2017-07-20T07:50:54.563Z,1004.38
2017-07-20T07:52:07.222Z,1004.37
2017-07-20T07:53:19.587Z,1004.31
2017-07-20T07:54:32.173Z,1004.33
2017-07-20T07:55:44.815Z,1004.35
2017-07-20T07:56:57.128Z,1004.32
2017-07-20T07:58:09.479Z,1004.34
2017-07-20T07:59:22.104Z,1004.3
2017-07-20T08:00:34.715Z,1004.32
2017-07-20T08:01:47.058Z,1004.28
2017-07-20T08:02:59.405Z,1004.33
2017-07-20T08:04:11.740Z,1004.34
2017-07-20T08:05:24.099Z,1004.31
2017-07-20T08:06:36.727Z,1004.35
2017-07-20T08:07:48.747Z,1004.33
2017-07-20T08:09:01.058Z,1004.31
2017-07-20T08:10:13.647Z,1004.34
2017-07-20T08:11:25.388Z,1004.28
2017-07-20T08:12:37.470Z,1004.27
2017-07-20T08:13:49.136Z,1004.25
2017-07-20T08:15:01.706Z,1004.29
2017-07-20T08:16:13.997Z,1004.33
2017-07-20T08:17:26.007Z,1004.23
2017-07-20T08:18:38.638Z,1004.24
2017-07-20T08:19:51.269Z,1004.19
2017-07-20T08:21:03.637Z,1004.18
2017-07-20T08:22:16.162Z,1004.23
2017-07-20T08:23:28.746Z,1004.21
2017-07-20T08:24:41.067Z,1004.2
2017-07-20T08:25:53.721Z,1004.23
2017-07-20T08:27:06.377Z,1004.2
2017-07-20T08:28:18.725Z,1004.23
2017-07-20T08:29:31.376Z,1004.24
2017-07-20T08:30:44.008Z,1004.26
2017-07-20T08:31:56.656Z,1004.21
2017-07-20T08:33:09.279Z,1004.27
2017-07-20T08:34:21.588Z,1004.23
2017-07-20T08:35:33.872Z,1004.2
2017-07-20T08:36:46.436Z,1004.18
2017-07-20T08:37:58.746Z,1004.2
2017-07-20T08:39:11.054Z,1004.21
2017-07-20T08:40:23.420Z,1004.17
2017-07-20T08:41:35.955Z,1004.17
2017-07-20T08:42:47.972Z,1004.15
2017-07-20T08:44:00.593Z,1004.16
2017-07-20T08:45:13.171Z,1004.19
2017-07-20T08:46:25.524Z,1004.16
2017-07-20T08:47:37.814Z,1004.18
2017-07-20T08:48:50.423Z,1004.14
2017-07-20T08:50:02.747Z,1004.15
2017-07-20T08:51:14.740Z,1004.14
2017-07-20T08:52:27.442Z,1004.24
2017-07-20T08:53:39.742Z,1004.27
2017-07-20T08:54:52.404Z,1004.19
2017-07-20T08:56:04.701Z,1004.19
2017-07-20T08:57:17.043Z,1004.13
2017-07-20T08:58:29.683Z,1004.14
2017-07-20T08:59:41.929Z,1004.2
2017-07-20T09:00:54.210Z,1004.19
2017-07-20T09:02:06.529Z,1004.16
2017-07-20T09:03:19.117Z,1004.09
2017-07-20T09:04:31.675Z,1004.12
2017-07-20T09:05:43.344Z,1004.13
2017-07-20T09:06:55.928Z,1004.14
2017-07-20T09:08:08.186Z,1004.13
2017-07-20T09:09:20.471Z,1004.12
2017-07-20T09:10:33.017Z,1004.14
2017-07-20T09:11:45.538Z,1004.17
2017-07-20T09:12:58.147Z,1004.24
2017-07-20T09:14:10.172Z,1004.24
2017-07-20T09:15:22.189Z,1004.19
2017-07-20T09:16:34.816Z,1004.29
2017-07-20T09:17:46.842Z,1004.27
2017-07-20T09:18:59.399Z,1004.26
2017-07-20T09:20:11.409Z,1004.31
2017-07-20T09:21:23.656Z,1004.22
2017-07-20T09:22:36.210Z,1004.29
2017-07-20T09:23:48.554Z,1004.23
2017-07-20T09:25:00.853Z,1004.3
2017-07-20T09:26:12.896Z,1004.3
2017-07-20T09:27:25.204Z,1004.3
2017-07-20T09:28:37.797Z,1004.27
2017-07-20T09:29:50.412Z,1004.24
2017-07-20T09:31:03.034Z,1004.22
2017-07-20T09:32:15.685Z,1004.24
2017-07-20T09:33:28.303Z,1004.28
2017-07-20T09:34:40.886Z,1004.26
2017-07-20T09:35:53.524Z,1004.25
2017-07-20T09:37:05.802Z,1004.26
2017-07-20T09:38:18.389Z,1004.26
2017-07-20T09:39:30.738Z,1004.2
2017-07-20T09:40:43.315Z,1004.23
2017-07-20T09:41:55.985Z,1004.25
2017-07-20T09:43:08.247Z,1004.29
2017-07-20T09:44:20.910Z,1004.32
2017-07-20T09:45:33.192Z,1004.29
2017-07-20T09:46:45.778Z,1004.22
2017-07-20T09:47:58.028Z,1004.18
2017-07-20T09:49:10.620Z,1004.15
2017-07-20T09:50:23.276Z,1004.08
2017-07-20T09:51:35.597Z,1004.11
2017-07-20T09:52:48.208Z,1004.08
2017-07-20T09:54:00.445Z,1004.06
2017-07-20T09:55:12.452Z,1004.01
2017-07-20T09:56:25.151Z,1004.02
2017-07-20T09:57:37.774Z,1004
2017-07-20T09:58:49.789Z,1003.98
2017-07-20T10:00:01.757Z,1003.96
2017-07-20T10:01:14.091Z,1003.93
2017-07-20T10:02:26.735Z,1003.9
2017-07-20T10:03:39.313Z,1003.93
2017-07-20T10:04:51.602Z,1003.99
2017-07-20T10:06:03.998Z,1003.89
2017-07-20T10:07:16.333Z,1003.86
2017-07-20T10:08:28.702Z,1003.88
2017-07-20T10:09:41.029Z,1003.9
2017-07-20T10:10:53.603Z,1003.85
2017-07-20T10:12:06.204Z,1003.89
2017-07-20T10:13:18.837Z,1003.9
2017-07-20T10:14:31.134Z,1003.89
2017-07-20T10:15:43.410Z,1003.87
2017-07-20T10:16:56.007Z,1003.89
2017-07-20T10:18:08.324Z,1003.87
2017-07-20T10:19:20.916Z,1003.87
2017-07-20T10:20:32.930Z,1003.85
2017-07-20T10:21:45.547Z,1003.81
2017-07-20T10:22:58.223Z,1003.82
2017-07-20T10:24:10.768Z,1003.82
2017-07-20T10:25:23.049Z,1003.82
2017-07-20T10:26:35.348Z,1003.79
2017-07-20T10:27:48.049Z,1003.79
2017-07-20T10:29:00.709Z,1003.74
2017-07-20T10:30:13.305Z,1003.83
2017-07-20T10:31:25.302Z,1003.79
2017-07-20T10:32:37.640Z,1003.79
2017-07-20T10:33:49.917Z,1003.67
2017-07-20T10:35:02.536Z,1003.68
2017-07-20T10:36:14.950Z,1003.75
2017-07-20T10:37:27.232Z,1003.69
2017-07-20T10:38:39.907Z,1003.72
2017-07-20T10:39:52.197Z,1003.73
2017-07-20T10:41:04.511Z,1003.76
2017-07-20T10:42:17.101Z,1003.7
2017-07-20T10:43:29.717Z,1003.74
2017-07-20T10:44:42.006Z,1003.77
2017-07-20T10:45:54.306Z,1003.8
2017-07-20T10:47:06.898Z,1003.78
2017-07-20T10:48:19.547Z,1003.79
2017-07-20T10:49:32.195Z,1003.75
2017-07-20T10:50:44.803Z,1003.71
2017-07-20T10:51:57.374Z,1003.72
2017-07-20T10:53:10.045Z,1003.72
2017-07-20T10:54:22.623Z,1003.69
2017-07-20T10:55:35.244Z,1003.74
2017-07-20T10:56:47.240Z,1003.66
2017-07-20T10:57:59.273Z,1003.67
2017-07-20T10:59:11.936Z,1003.65
2017-07-20T11:00:24.228Z,1003.67
2017-07-20T11:01:36.529Z,1003.61
2017-07-20T11:02:49.131Z,1003.65
2017-07-20T11:04:01.139Z,1003.67
2017-07-20T11:05:13.511Z,1003.6
2017-07-20T11:06:26.105Z,1003.65
2017-07-20T11:07:38.154Z,1003.71
2017-07-20T11:08:50.449Z,1003.72
2017-07-20T11:10:03.070Z,1003.79
2017-07-20T11:11:15.092Z,1003.82
2017-07-20T11:12:27.715Z,1003.75
2017-07-20T11:13:40.358Z,1003.68
2017-07-20T11:14:52.915Z,1003.67
2017-07-20T11:16:05.174Z,1003.66
2017-07-20T11:17:17.196Z,1003.62
2017-07-20T11:18:29.794Z,1003.57
2017-07-20T11:19:42.413Z,1003.61
2017-07-20T11:20:54.715Z,1003.69
2017-07-20T11:22:07.013Z,1003.78
2017-07-20T11:23:19.052Z,1003.83
2017-07-20T11:24:30.723Z,1003.87
2017-07-20T11:25:42.758Z,1003.92
2017-07-20T11:26:54.999Z,1003.95
2017-07-20T11:28:07.587Z,1003.96
2017-07-20T11:29:20.173Z,1003.99
2017-07-20T11:30:32.738Z,1003.82
2017-07-20T11:31:45.359Z,1003.73
2017-07-20T11:32:57.974Z,1003.75
2017-07-20T11:34:10.626Z,1003.84
2017-07-20T11:35:23.240Z,1003.9
2017-07-20T11:36:35.822Z,1003.92
2017-07-20T11:37:48.403Z,1003.94
2017-07-20T11:39:01.016Z,1003.84
2017-07-20T11:40:13.045Z,1003.78
2017-07-20T11:41:25.350Z,1003.7
2017-07-20T11:42:37.961Z,1003.65
2017-07-20T11:43:50.579Z,1003.66
2017-07-20T11:45:02.850Z,1003.63
2017-07-20T11:46:14.827Z,1003.69
2017-07-20T11:47:27.110Z,1003.73
2017-07-20T11:48:39.382Z,1003.75
2017-07-20T11:49:51.989Z,1003.66
2017-07-20T11:51:04.559Z,1003.65
2017-07-20T11:52:17.203Z,1003.63
2017-07-20T11:53:29.811Z,1003.62
2017-07-20T11:54:42.354Z,1003.6
2017-07-20T11:55:54.639Z,1003.63
2017-07-20T11:57:07.203Z,1003.56
2017-07-20T11:58:19.793Z,1003.61
2017-07-20T11:59:32.403Z,1003.59
2017-07-20T12:00:45.033Z,1003.74
2017-07-20T12:01:57.318Z,1003.62
2017-07-20T12:03:09.651Z,1003.66
2017-07-20T12:04:21.954Z,1003.63
2017-07-20T12:05:34.208Z,1003.76
2017-07-20T12:06:46.813Z,1003.77
2017-07-20T12:07:59.135Z,1003.85
2017-07-20T12:09:11.746Z,1003.83
2017-07-20T12:10:24.389Z,1003.83
2017-07-20T12:11:36.712Z,1003.91
2017-07-20T12:12:49.361Z,1003.89
2017-07-20T12:14:02.029Z,1003.84
2017-07-20T12:15:14.392Z,1003.88
2017-07-20T12:16:26.957Z,1003.9
2017-07-20T12:17:39.572Z,1003.95
2017-07-20T12:18:52.472Z,1004.04
2017-07-20T12:20:04.842Z,1003.97
2017-07-20T12:21:17.180Z,1003.86
2017-07-20T12:22:29.768Z,1003.73
2017-07-20T12:23:42.432Z,1003.66
2017-07-20T12:24:55.066Z,1003.6
2017-07-20T12:26:07.105Z,1003.68
2017-07-20T12:27:19.709Z,1003.74
2017-07-20T12:28:32.327Z,1003.81
2017-07-20T12:29:44.339Z,1003.84
2017-07-20T12:30:56.621Z,1003.95
2017-07-20T12:32:08.917Z,1003.99
2017-07-20T12:33:20.914Z,1003.88
2017-07-20T12:34:33.519Z,1003.89
2017-07-20T12:35:45.279Z,1003.91
2017-07-20T12:36:57.576Z,1003.88
2017-07-20T12:38:09.629Z,1003.91
2017-07-20T12:39:22.263Z,1003.79
2017-07-20T12:40:34.796Z,1003.85
2017-07-20T12:41:47.101Z,1003.91
2017-07-20T12:42:59.736Z,1003.91
2017-07-20T12:44:12.058Z,1003.83
2017-07-20T12:45:24.672Z,1003.64
2017-07-20T12:46:37.017Z,1003.58
2017-07-20T12:47:49.364Z,1003.55
2017-07-20T12:49:01.985Z,1003.58
2017-07-20T12:50:14.622Z,1003.6
2017-07-20T12:51:26.909Z,1003.65
2017-07-20T12:52:38.874Z,1003.63
2017-07-20T12:53:51.172Z,1003.62
2017-07-20T12:55:03.525Z,1003.57
2017-07-20T12:56:15.596Z,1003.67
2017-07-20T12:57:27.879Z,1003.64
2017-07-20T12:58:40.486Z,1003.65
2017-07-20T12:59:53.133Z,1003.61
2017-07-20T13:01:05.400Z,1003.53
2017-07-20T13:02:17.741Z,1003.55
2017-07-20T13:03:30.036Z,1003.57
2017-07-20T13:04:42.640Z,1003.56
2017-07-20T13:05:55.254Z,1003.47
2017-07-20T13:07:07.829Z,1003.45
2017-07-20T13:08:20.123Z,1003.48
2017-07-20T13:09:32.750Z,1003.47
2017-07-20T13:10:45.369Z,1003.38
2017-07-20T13:11:57.662Z,1003.42
2017-07-20T13:13:09.935Z,1003.44
2017-07-20T13:14:22.574Z,1003.45
2017-07-20T13:15:34.236Z,1003.48
2017-07-20T13:16:46.484Z,1003.51
2017-07-20T13:17:59.086Z,1003.53
2017-07-20T13:19:10.786Z,1003.68
2017-07-20T13:20:23.354Z,1003.67
2017-07-20T13:21:35.962Z,1003.77
2017-07-20T13:22:48.296Z,1003.71
2017-07-20T13:24:00.869Z,1003.71
2017-07-20T13:25:13.474Z,1003.67
2017-07-20T13:26:25.470Z,1003.59
2017-07-20T13:27:38.047Z,1003.57
2017-07-20T13:28:50.662Z,1003.65
2017-07-20T13:30:03.272Z,1003.67
2017-07-20T13:31:15.835Z,1003.67
2017-07-20T13:32:28.111Z,1003.65
2017-07-20T13:33:40.652Z,1003.61
2017-07-20T13:34:53.326Z,1003.51
2017-07-20T13:36:05.353Z,1003.48
2017-07-20T13:37:17.623Z,1003.5
2017-07-20T13:38:30.170Z,1003.61
2017-07-20T13:39:42.490Z,1003.58
2017-07-20T13:40:54.821Z,1003.55
2017-07-20T13:42:07.132Z,1003.6
2017-07-20T13:43:19.462Z,1003.63
2017-07-20T13:44:32.097Z,1003.61
2017-07-20T13:45:44.736Z,1003.65
2017-07-20T13:46:57.005Z,1003.66
2017-07-20T13:48:09.362Z,1003.65
2017-07-20T13:49:21.929Z,1003.67
2017-07-20T13:50:34.530Z,1003.7
2017-07-20T13:51:46.801Z,1003.7
2017-07-20T13:52:59.393Z,1003.62
2017-07-20T13:54:11.932Z,1003.6
2017-07-20T13:55:24.210Z,1003.59
2017-07-20T13:56:36.570Z,1003.6
2017-07-20T13:57:48.862Z,1003.64
2017-07-20T13:59:01.434Z,1003.61
2017-07-20T14:00:14.020Z,1003.62
2017-07-20T14:01:26.263Z,1003.64
2017-07-20T14:02:38.834Z,1003.58
2017-07-20T14:03:51.450Z,1003.58
2017-07-20T14:05:03.752Z,1003.52
2017-07-20T14:06:15.707Z,1003.49
2017-07-20T14:07:28.331Z,1003.53
2017-07-20T14:08:40.893Z,1003.53
2017-07-20T14:09:53.240Z,1003.53
2017-07-20T14:11:05.511Z,1003.55
2017-07-20T14:12:18.191Z,1003.58
2017-07-20T14:13:30.765Z,1003.52
2017-07-20T14:14:42.477Z,1003.47
2017-07-20T14:15:55.084Z,1003.44
2017-07-20T14:17:07.717Z,1003.48
2017-07-20T14:18:20.301Z,1003.49
2017-07-20T14:19:32.282Z,1003.47
2017-07-20T14:20:44.867Z,1003.41
2017-07-20T14:21:57.476Z,1003.42
2017-07-20T14:23:09.432Z,1003.43
2017-07-20T14:24:21.387Z,1003.46
2017-07-20T14:25:33.986Z,1003.48
2017-07-20T14:26:46.305Z,1003.45
2017-07-20T14:27:58.940Z,1003.45
2017-07-20T14:29:11.519Z,1003.49
2017-07-20T14:30:23.872Z,1003.47
2017-07-20T14:31:36.168Z,1003.5
2017-07-20T14:32:48.456Z,1003.47
2017-07-20T14:34:01.080Z,1003.53
2017-07-20T14:35:13.349Z,1003.52
2017-07-20T14:36:25.046Z,1003.56
2017-07-20T14:37:37.326Z,1003.63
2017-07-20T14:38:49.675Z,1003.61
2017-07-20T14:40:01.995Z,1003.61